LIMF 210120Z 33005KT CAVOK 15/11 Q1020 LIMF 210050Z 01005KT CAVOK 15/11 Q1020 LIMF 210020Z 35005KT 9999 BKN100 15/11 Q1020 LIMF 202350Z 04003KT 9999 BKN100 16/11 Q1020 LIMF 202320Z VRB02KT 9999 BKN080 16/10 Q1020 LIMF 202250Z 09003KT 050V120 9999 BKN100 15/11 Q1019 LIMF 202220Z 29005KT 9999 FEW100 16/10 Q1019 LIMF 202150Z 29005KT 9999 FEW100 16/10 Q1019 LIMF 202120Z 31006KT 240V350 CAVOK 16/10 Q1018 LIMF 202050Z 31004KT 9999 FEW120 17/09 Q1018 LIMF 202020Z 33006KT 9999 BKN100 18/09 Q1018 LIMF 201950Z 01007KT 9999 BKN100 19/09 Q1017 LIMF 201920Z 33007KT 300V010 9999 BKN100 19/10 Q1017 LIMF 201850Z 33004KT 9999 BKN100 19/12 Q1017 LIMF 201820Z VRB02KT 9999 BKN100 18/12 Q1017 LIMF 201750Z 09004KT 9999 BKN100 19/12 Q1016 LIMF 201720Z 04004KT 9999 BKN100 19/12 Q1016 LIMF 201650Z 07004KT 9999 BKN100 20/12 Q1015 LIMF 201620Z 09003KT 9999 BKN100 20/12 Q1015 LIMF 201550Z 08004KT 9999 BKN100 21/11 Q1015 LIMF 201520Z 07006KT 9999 BKN100 21/11 Q1014 LIMF 201450Z 06007KT 9999 BKN120 21/12 Q1014 LIMF 201420Z 03007KT 9999 BKN120 22/11 Q1014 LIMF 201350Z 04006KT 010V070 9999 BKN120 22/10 Q1014 LIMF 201320Z 03006KT 9999 BKN120 21/09 Q1014 LIMF 201250Z 04006KT 010V070 9999 BKN120 22/08 Q1014 LIMF 201220Z 08005KT 030V110 9999 BKN120 22/10 Q1014 LIMF 201150Z 01004KT 340V070 9999 BKN120 22/09 Q1014 LIMF 201120Z 01003KT 250V060 9999 BKN120 22/08 Q1014 LIMF 201050Z 36003KT 310V070 9999 BKN120 21/09 Q1014 LIMF 201020Z VRB04KT 9999 BKN120 22/10 Q1014 LIMF 200950Z 11003KT 040V170 9999 BKN120 21/10 Q1014 LIMF 200920Z VRB02KT CAVOK 20/12 Q1014 LIMF 200850Z VRB02KT CAVOK 19/11 Q1014 LIMF 200820Z 13003KT 100V180 CAVOK 18/11 Q1013 LIMF 200750Z 17003KT 140V200 CAVOK 17/10 Q1013 LIMF 200720Z VRB01KT CAVOK 16/10 Q1013 LIMF 200650Z VRB01KT CAVOK 16/10 Q1013 LIMF 200620Z VRB02KT CAVOK 13/09 Q1013 LIMF 200550Z VRB01KT CAVOK 12/09 Q1012 LIMF 200520Z 28004KT CAVOK 11/08 Q1012 LIMF 200450Z 31004KT 290V350 CAVOK 12/08 Q1012 LIMF 200420Z CAVOK 12/09 Q1012 LIMF 200320Z 31002KT CAVOK 13/10 Q1012 LIMF 200250Z 27006KT CAVOK 13/10 Q1012 LIMF 200220Z 24004KT 190V260 CAVOK 12/10 Q1012 LIMF 200150Z 25003KT CAVOK 13/11 Q1012 LIMF 200120Z VRB02KT CAVOK 13/11 Q1012 LIMF 200050Z VRB01KT CAVOK 13/12 Q1012 LIMF 200020Z VRB02KT CAVOK 13/11 Q1012 LIMF 192350Z VRB02KT CAVOK 14/11 Q1012 LIMF 192320Z 01003KT CAVOK 14/11 Q1012 LIMF 192250Z 32003KT CAVOK 14/11 Q1012 LIMF 192220Z 28004KT CAVOK 14/11 Q1012 LIMF 192150Z 32004KT CAVOK 15/11 Q1011 LIMF 192120Z 34005KT CAVOK 14/11 Q1011 LIMF 192050Z 35003KT CAVOK 14/12 Q1011 LIMF 192020Z 35003KT CAVOK 14/12 Q1011 LIMF 191950Z 28005KT CAVOK 15/12 Q1011 LIMF 191920Z VRB02KT CAVOK 17/11 Q1011 LIMF 191850Z VRB02KT CAVOK 16/12 Q1011 LIMF 191820Z 08004KT CAVOK 16/11 Q1011 LIMF 191750Z 01004KT CAVOK 17/12 Q1010 LIMF 191720Z 33005KT 310V010 9999 FEW040 17/13 Q1010 LIMF 191650Z 36007KT 9999 FEW030 SCT070 17/13 Q1010 RETSRA LIMF 191620Z 05011KT 9999 TSRA FEW030CB SCT060 19/11 Q1010 LIMF 191550Z 08010KT 050V120 9999 FEW045 21/12 Q1009 LIMF 191520Z 07016KT 9999 SCT045 21/13 Q1009 LIMF 191450Z 08013KT 9999 SCT050 22/14 Q1008 LIMF 191420Z 07007KT 9999 FEW030 23/11 Q1008

METAR Messwerte

Zurück zur Übersicht

Ort
m ü. NN
Zeit Temperatur Taupunkt Rel.
Luftfeuchte
Luftdruck:
Altimeter
NN
Station
Wind in Beaufort
(Knoten)
Sichtweite
(Meter)
Wolken
(Meter über Grund)
Wettererscheinung
Turin
287
Di 21.09. 03:20151177 %1020
1020
986
NNW 2 (5)>= 10000Nicht signifikant 
Turin
287
Di 21.09. 02:50151177 %1020
1020
986
N 2 (5)>= 10000Nicht signifikant 
Turin
287
Di 21.09. 02:20151177 %1020
1020
986
N 2 (5)>= 10000Stark bewölkt (3000) 
Turin
287
Di 21.09. 01:50161172 %1020
1020
986
NO 2 (3)>= 10000Stark bewölkt (3000) 
Turin
287
Di 21.09. 01:20161068 %1020
1020
986
Uml 1 (2)>= 10000Stark bewölkt (2400) 
Turin
287
Di 21.09. 00:50151177 %1019
1019
985
O 2 (3)
NO - OSO
>= 10000Stark bewölkt (3000) 
Turin
287
Di 21.09. 00:20161068 %1019
1019
985
WNW 2 (5)>= 10000Leicht bewölkt (3000) 
Turin
287
Mo 20.09. 23:50161068 %1019
1019
985
WNW 2 (5)>= 10000Leicht bewölkt (3000) 
Turin
287
Mo 20.09. 23:20161068 %1018
1018
984
NW 2 (6)
WSW - N
>= 10000Nicht signifikant 
Turin
287
Mo 20.09. 22:5017959 %1018
1018
984
NW 2 (4)>= 10000Leicht bewölkt (3700) 
Turin
287
Mo 20.09. 22:2018956 %1018
1018
984
NNW 2 (6)>= 10000Stark bewölkt (3000) 
Turin
287
Mo 20.09. 21:5019952 %1017
1017
983
N 3 (7)>= 10000Stark bewölkt (3000) 
Turin
287
Mo 20.09. 21:20191056 %1017
1017
983
NNW 3 (7)
WNW - N
>= 10000Stark bewölkt (3000) 
Turin
287
Mo 20.09. 20:50191264 %1017
1017
983
NNW 2 (4)>= 10000Stark bewölkt (3000) 
Turin
287
Mo 20.09. 20:20181268 %1017
1017
983
Uml 1 (2)>= 10000Stark bewölkt (3000) 
Turin
287
Mo 20.09. 19:50191264 %1016
1016
982
O 2 (4)>= 10000Stark bewölkt (3000) 
Turin
287
Mo 20.09. 19:20191264 %1016
1016
982
NO 2 (4)>= 10000Stark bewölkt (3000) 
Turin
287
Mo 20.09. 18:50201260 %1015
1014
981
ONO 2 (4)>= 10000Stark bewölkt (3000) 
Turin
287
Mo 20.09. 18:20201260 %1015
1014
981
O 2 (3)>= 10000Stark bewölkt (3000) 
Turin
287
Mo 20.09. 17:50211153 %1015
1014
981
O 2 (4)>= 10000Stark bewölkt (3000) 
Turin
287
Mo 20.09. 17:20211153 %1014
1013
980
ONO 2 (6)>= 10000Stark bewölkt (3000) 
Turin
287
Mo 20.09. 16:50211256 %1014
1013
980
ONO 3 (7)>= 10000Stark bewölkt (3700) 
Turin
287
Mo 20.09. 16:20221150 %1014
1013
980
NNO 3 (7)>= 10000Stark bewölkt (3700) 
Turin
287
Mo 20.09. 15:50221046 %1014
1013
980
NO 2 (6)
N - ONO
>= 10000Stark bewölkt (3700) 
Turin
287
Mo 20.09. 15:2021946 %1014
1013
980
NNO 2 (6)>= 10000Stark bewölkt (3700) 
Turin
287
Mo 20.09. 14:5022841 %1014
1013
980
NO 2 (6)
N - ONO
>= 10000Stark bewölkt (3700) 
Turin
287
Mo 20.09. 14:20221046 %1014
1013
980
O 2 (5)
NNO - OSO
>= 10000Stark bewölkt (3700) 
Turin
287
Mo 20.09. 13:5022943 %1014
1013
980
N 2 (4)
NNW - ONO
>= 10000Stark bewölkt (3700) 
Turin
287
Mo 20.09. 13:2022841 %1014
1013
980
N 2 (3)
WSW - ONO
>= 10000Stark bewölkt (3700) 
Turin
287
Mo 20.09. 12:5021946 %1014
1013
980
N 2 (3)
NW - ONO
>= 10000Stark bewölkt (3700) 
Turin
287
Mo 20.09. 12:20221046 %1014
1013
980
Uml 2 (4)>= 10000Stark bewölkt (3700) 
Turin
287
Mo 20.09. 11:50211049 %1014
1013
980
OSO 2 (3)
NO - S
>= 10000Stark bewölkt (3700) 
Turin
287
Mo 20.09. 11:20201260 %1014
1013
980
Uml 1 (2)>= 10000Nicht signifikant 
Turin
287
Mo 20.09. 10:50191160 %1014
1014
980
Uml 1 (2)>= 10000Nicht signifikant 
Turin
287
Mo 20.09. 10:20181164 %1013
1013
979
SO 2 (3)
O - S
>= 10000Nicht signifikant 
Turin
287
Mo 20.09. 09:50171063 %1013
1013
979
S 2 (3)
SO - SSW
>= 10000Nicht signifikant 
Turin
287
Mo 20.09. 09:20161068 %1013
1013
979
Uml 1 (1)>= 10000Nicht signifikant 
Turin
287
Mo 20.09. 08:50161068 %1013
1013
979
Uml 1 (1)>= 10000Nicht signifikant 
Turin
287
Mo 20.09. 08:2013977 %1013
1013
979
Uml 1 (2)>= 10000Nicht signifikant 
Turin
287
Mo 20.09. 07:5012982 %1012
1012
978
Uml 1 (1)>= 10000Nicht signifikant 
Turin
287
Mo 20.09. 07:2011882 %1012
1012
978
W 2 (4)>= 10000Nicht signifikant 
Turin
287
Mo 20.09. 06:5012876 %1012
1012
978
NW 2 (4)
WNW - N
>= 10000Nicht signifikant 
Turin
287
Mo 20.09. 06:2012982 %1012
1012
978
 >= 10000Nicht signifikant 
Turin
287
Mo 20.09. 05:20131082 %1012
1012
978
NW 1 (2)>= 10000Nicht signifikant 
Turin
287
Mo 20.09. 04:50131082 %1012
1012
978
W 2 (6)>= 10000Nicht signifikant 
Turin
287
Mo 20.09. 04:20121088 %1012
1012
978
WSW 2 (4)
S - W
>= 10000Nicht signifikant 
Turin
287
Mo 20.09. 03:50131188 %1012
1012
978
WSW 2 (3)>= 10000Nicht signifikant 
Turin
287
Mo 20.09. 03:20131188 %1012
1012
978
Uml 1 (2)>= 10000Nicht signifikant 
Turin
287
Mo 20.09. 02:50131294 %1012
1012
978
Uml 1 (1)>= 10000Nicht signifikant 
Turin
287
Mo 20.09. 02:20131188 %1012
1012
978
Uml 1 (2)>= 10000Nicht signifikant 
Turin
287
Mo 20.09. 01:50141182 %1012
1012
978
Uml 1 (2)>= 10000Nicht signifikant 
Turin
287
Mo 20.09. 01:20141182 %1012
1012
978
N 2 (3)>= 10000Nicht signifikant 
Turin
287
Mo 20.09. 00:50141182 %1012
1012
978
NW 2 (3)>= 10000Nicht signifikant 
Turin
287
Mo 20.09. 00:20141182 %1012
1012
978
W 2 (4)>= 10000Nicht signifikant 
Turin
287
So 19.09. 23:50151177 %1011
1011
977
NW 2 (4)>= 10000Nicht signifikant 
Turin
287
So 19.09. 23:20141182 %1011
1011
977
NNW 2 (5)>= 10000Nicht signifikant 
Turin
287
So 19.09. 22:50141288 %1011
1011
977
N 2 (3)>= 10000Nicht signifikant 
Turin
287
So 19.09. 22:20141288 %1011
1011
977
N 2 (3)>= 10000Nicht signifikant 
Turin
287
So 19.09. 21:50151282 %1011
1011
977
W 2 (5)>= 10000Nicht signifikant 
Turin
287
So 19.09. 21:20171168 %1011
1011
977
Uml 1 (2)>= 10000Nicht signifikant 
Turin
287
So 19.09. 20:50161277 %1011
1011
977
Uml 1 (2)>= 10000Nicht signifikant 
Turin
287
So 19.09. 20:20161172 %1011
1011
977
O 2 (4)>= 10000Nicht signifikant 
Turin
287
So 19.09. 19:50171272 %1010
1010
976
N 2 (4)>= 10000Nicht signifikant 
Turin
287
So 19.09. 19:20171377 %1010
1010
976
NNW 2 (5)
NW - N
>= 10000Leicht bewölkt (1200) 
Turin
287
So 19.09. 18:50171377 %1010
1010
976
N 3 (7)>= 10000Wolkig (2100)
Leicht bewölkt (910)
 
Turin
287
So 19.09. 18:20191160 %1010
1010
976
NO 4 (11)>= 10000Wolkig (1800)
Leicht bewölkt Cb (910)
Gewitter mit Regen
Turin
287
So 19.09. 17:50211256 %1009
1008
975
O 3 (10)
NO - OSO
>= 10000Leicht bewölkt (1400) 
Turin
287
So 19.09. 17:20211360 %1009
1008
975
ONO 5 (16)>= 10000Wolkig (1400) 
Turin
287
So 19.09. 16:50221460 %1008
1007
974
O 4 (13)>= 10000Wolkig (1500) 
Turin
287
So 19.09. 16:20231147 %1008
1007
974
ONO 3 (7)>= 10000Leicht bewölkt (910) 

Altimeter: Einstellung am Altimeter (Höhenmesser), die Höhe 0 muss auf diesen Luftdruckwert zeigen, damit das Gerät die Stationshöhe richtig anzeigt.

NN: Luftdruck reduziert auf "Normal Null", auf Meereshöhe, dieser von der Temperatur abhängige Wert wird bisweilen unkorrekt einfach als "Luftdruck" bezeichnet. Eigentlich nur eine fiktive Größe, die es erlaubt, Stationen auf unterschiedlichen Höhen miteinander zu vergleichen.

Station: Realer Luftdruck an der Station.